createdAt,value
2017-06-30T00:00:33.006Z,989.62
2017-06-30T00:01:13.591Z,989.67
2017-06-30T00:01:54.205Z,989.59
2017-06-30T00:02:34.776Z,989.61
2017-06-30T00:03:15.368Z,989.58
2017-06-30T00:03:55.920Z,989.56
2017-06-30T00:04:36.539Z,989.61
2017-06-30T00:05:17.113Z,989.6
2017-06-30T00:05:57.671Z,989.62
2017-06-30T00:06:38.228Z,989.55
2017-06-30T00:07:18.852Z,989.61
2017-06-30T00:07:59.424Z,989.61
2017-06-30T00:08:40.000Z,989.62
2017-06-30T00:09:20.583Z,989.66
2017-06-30T00:10:01.189Z,989.71
2017-06-30T00:10:41.773Z,989.71
2017-06-30T00:11:22.356Z,989.67
2017-06-30T00:12:02.931Z,989.64
2017-06-30T00:12:43.501Z,989.58
2017-06-30T00:13:24.210Z,989.64
2017-06-30T00:14:04.775Z,989.72
2017-06-30T00:14:45.345Z,989.72
2017-06-30T00:15:25.940Z,989.69
2017-06-30T00:16:06.554Z,989.66
2017-06-30T00:16:47.135Z,989.65
2017-06-30T00:17:27.711Z,989.69
2017-06-30T00:18:08.286Z,989.72
2017-06-30T00:18:48.873Z,989.67
2017-06-30T00:19:29.449Z,989.69
2017-06-30T00:20:10.071Z,989.72
2017-06-30T00:20:50.613Z,989.71
2017-06-30T00:21:31.190Z,989.74
2017-06-30T00:22:11.762Z,989.7
2017-06-30T00:22:52.387Z,989.82
2017-06-30T00:23:32.958Z,989.79
2017-06-30T00:24:13.555Z,989.83
2017-06-30T00:24:54.137Z,989.84
2017-06-30T00:25:34.753Z,989.79
2017-06-30T00:26:15.339Z,989.81
2017-06-30T00:26:55.918Z,989.95
2017-06-30T00:27:36.488Z,989.81
2017-06-30T00:28:17.063Z,989.89
2017-06-30T00:28:57.650Z,989.9
2017-06-30T00:29:38.230Z,989.91
2017-06-30T00:30:18.799Z,989.91
2017-06-30T00:30:59.381Z,989.9
2017-06-30T00:31:39.957Z,989.89
2017-06-30T00:32:20.536Z,989.91
2017-06-30T00:33:01.117Z,989.87
2017-06-30T00:33:41.688Z,989.94
2017-06-30T00:34:22.274Z,989.92
2017-06-30T00:35:02.858Z,989.87
2017-06-30T00:35:43.472Z,989.89
2017-06-30T00:36:24.042Z,989.91
2017-06-30T00:37:04.643Z,989.95
2017-06-30T00:37:45.185Z,989.95
2017-06-30T00:38:25.763Z,989.95
2017-06-30T00:39:06.329Z,989.96
2017-06-30T00:39:46.927Z,989.98
2017-06-30T00:40:27.495Z,990.01
2017-06-30T00:41:08.084Z,989.98
2017-06-30T00:41:48.653Z,989.94
2017-06-30T00:42:29.238Z,989.92
2017-06-30T00:43:09.840Z,989.96
2017-06-30T00:43:50.435Z,989.95
2017-06-30T00:44:31.001Z,989.93
2017-06-30T00:45:11.571Z,989.93
2017-06-30T00:45:52.166Z,990
2017-06-30T00:46:32.760Z,989.98
2017-06-30T00:47:13.347Z,989.97
2017-06-30T00:47:53.915Z,990.01
2017-06-30T00:48:34.489Z,989.9
2017-06-30T00:49:15.067Z,990
2017-06-30T00:49:55.649Z,990.03
2017-06-30T00:50:36.222Z,990.04
2017-06-30T00:51:16.813Z,990.03
2017-06-30T00:51:57.379Z,990
2017-06-30T00:52:37.963Z,990.03
2017-06-30T00:53:18.536Z,990.01
2017-06-30T00:53:59.108Z,990.07
2017-06-30T00:54:39.690Z,990.07
2017-06-30T00:55:20.272Z,990.08
2017-06-30T00:56:00.865Z,990.09
2017-06-30T00:56:41.453Z,990.08
2017-06-30T00:57:22.025Z,990.12
2017-06-30T00:58:02.618Z,990.07
2017-06-30T00:58:43.206Z,990.08
2017-06-30T00:59:23.792Z,990.05
2017-06-30T01:00:04.374Z,990.13
2017-06-30T01:00:44.940Z,990.08
2017-06-30T01:01:25.518Z,990.12
2017-06-30T01:02:06.099Z,990.04
2017-06-30T01:02:46.685Z,990.11
2017-06-30T01:03:27.304Z,990.08
2017-06-30T01:04:07.857Z,990.07
2017-06-30T01:04:48.430Z,990.1
2017-06-30T01:05:29.009Z,990.15
2017-06-30T01:06:09.604Z,990.09
2017-06-30T01:06:50.199Z,990.11
2017-06-30T01:07:30.803Z,990.14
2017-06-30T01:08:11.377Z,990.1
2017-06-30T01:08:51.940Z,990.09
2017-06-30T01:09:32.520Z,990.11
2017-06-30T01:10:13.120Z,990.19
2017-06-30T01:10:53.686Z,990.12
2017-06-30T01:11:34.288Z,990.1
2017-06-30T01:12:14.863Z,990.12
2017-06-30T01:12:55.435Z,990.12
2017-06-30T01:13:36.020Z,990.08
2017-06-30T01:14:16.608Z,990.1
2017-06-30T01:14:57.180Z,990.1
2017-06-30T01:15:37.777Z,990.11
2017-06-30T01:16:18.375Z,990.15
2017-06-30T01:16:58.947Z,990.09
2017-06-30T01:17:39.536Z,990.09
2017-06-30T01:18:20.111Z,990.14
2017-06-30T01:19:00.668Z,990.11
2017-06-30T01:19:41.259Z,990.14
2017-06-30T01:20:21.839Z,990.13
2017-06-30T01:21:02.405Z,990.16
2017-06-30T01:21:43.013Z,990.13
2017-06-30T01:22:23.610Z,990.12
2017-06-30T01:23:04.227Z,990.14
2017-06-30T01:23:44.805Z,990.13
2017-06-30T01:24:25.384Z,990.06
2017-06-30T01:25:05.972Z,990.14
2017-06-30T01:25:46.570Z,990.12
2017-06-30T01:26:27.226Z,990.14
2017-06-30T01:27:07.789Z,990.1
2017-06-30T01:27:48.362Z,990.11
2017-06-30T01:28:28.940Z,990.11
2017-06-30T01:29:09.518Z,990.09
2017-06-30T01:29:50.120Z,990.05
2017-06-30T01:30:30.682Z,990.03
2017-06-30T01:31:11.285Z,990.04
2017-06-30T01:31:51.882Z,990.03
2017-06-30T01:32:32.446Z,990.05
2017-06-30T01:33:13.027Z,990.03
2017-06-30T01:33:53.623Z,990.03
2017-06-30T01:34:34.202Z,990.04
2017-06-30T01:35:14.803Z,990.01
2017-06-30T01:35:55.378Z,989.96
2017-06-30T01:36:35.962Z,990.05
2017-06-30T01:37:16.544Z,990.04
2017-06-30T01:37:57.139Z,990.03
2017-06-30T01:38:37.710Z,990.08
2017-06-30T01:39:18.300Z,989.96
2017-06-30T01:39:58.879Z,990
2017-06-30T01:40:39.461Z,990.02
2017-06-30T01:41:20.047Z,989.99
2017-06-30T01:42:00.628Z,989.94
2017-06-30T01:42:41.218Z,990
2017-06-30T01:43:21.771Z,990.04
2017-06-30T01:44:02.348Z,990.02
2017-06-30T01:44:42.916Z,990.03
2017-06-30T01:48:43.674Z,990.08
2017-06-30T01:49:24.250Z,990.05
2017-06-30T01:50:04.863Z,990.06
2017-06-30T01:50:45.430Z,990.02
2017-06-30T01:51:26.001Z,990.11
2017-06-30T01:52:06.561Z,990.1
2017-06-30T01:52:47.147Z,990.06
2017-06-30T01:53:27.725Z,990.05
2017-06-30T01:54:08.318Z,990.11
2017-06-30T01:54:48.906Z,990.2
2017-06-30T01:55:29.483Z,990.06
2017-06-30T01:56:10.055Z,990.05
2017-06-30T01:56:50.618Z,990.11
2017-06-30T01:57:31.207Z,990.11
2017-06-30T01:58:11.792Z,990.09
2017-06-30T01:58:52.388Z,990.07
2017-06-30T01:59:32.955Z,990.08
2017-06-30T02:00:13.517Z,990.05
2017-06-30T02:00:54.113Z,990.12
2017-06-30T02:01:34.690Z,990.12
2017-06-30T02:02:15.252Z,990.11
2017-06-30T02:02:55.825Z,990.04
2017-06-30T02:03:36.423Z,990.1
2017-06-30T02:04:16.979Z,990.14
2017-06-30T02:04:57.572Z,990.17
2017-06-30T02:05:38.164Z,990.09
2017-06-30T02:06:18.770Z,990.17
2017-06-30T02:06:59.374Z,990.19
2017-06-30T02:07:39.939Z,990.18
2017-06-30T02:08:20.534Z,990.15
2017-06-30T02:09:01.103Z,990.2
2017-06-30T02:09:41.676Z,990.21
2017-06-30T02:10:22.290Z,990.2
2017-06-30T02:11:02.844Z,990.25
2017-06-30T02:11:43.439Z,990.2
2017-06-30T02:12:24.018Z,990.25
2017-06-30T02:13:04.681Z,990.23
2017-06-30T02:13:45.261Z,990.24
2017-06-30T02:14:26.076Z,990.17
2017-06-30T02:15:06.671Z,990.22
2017-06-30T02:15:47.284Z,990.3
2017-06-30T02:16:27.861Z,990.31
2017-06-30T02:17:08.428Z,990.26
2017-06-30T02:17:49.017Z,990.28
2017-06-30T02:18:29.611Z,990.28
2017-06-30T02:19:10.187Z,990.42
2017-06-30T02:19:50.766Z,990.44
2017-06-30T02:20:31.357Z,990.4
2017-06-30T02:21:11.969Z,990.34
2017-06-30T02:21:52.562Z,990.33
2017-06-30T02:22:33.138Z,990.35
2017-06-30T02:23:13.724Z,990.36
2017-06-30T02:23:54.301Z,990.39
2017-06-30T02:24:34.891Z,990.39
2017-06-30T02:25:15.455Z,990.45
2017-06-30T02:25:56.031Z,990.39
2017-06-30T02:26:36.609Z,990.44
2017-06-30T02:27:17.249Z,990.42
2017-06-30T02:27:57.817Z,990.4
2017-06-30T02:28:38.381Z,990.4
2017-06-30T02:29:18.949Z,990.44
2017-06-30T02:29:59.520Z,990.44
2017-06-30T02:30:40.092Z,990.45
2017-06-30T02:31:20.677Z,990.45
2017-06-30T02:32:01.266Z,990.39
2017-06-30T02:32:41.952Z,990.35
2017-06-30T02:33:22.543Z,990.44
2017-06-30T02:34:03.120Z,990.47
2017-06-30T02:34:43.689Z,990.47
2017-06-30T02:35:24.260Z,990.44
2017-06-30T02:36:04.833Z,990.45
2017-06-30T02:36:45.465Z,990.43
2017-06-30T02:37:26.036Z,990.49
2017-06-30T02:38:06.646Z,990.47
2017-06-30T02:38:47.250Z,990.45
2017-06-30T02:39:27.814Z,990.41
2017-06-30T02:40:08.408Z,990.45
2017-06-30T02:40:48.990Z,990.52
2017-06-30T02:41:29.592Z,990.48
2017-06-30T02:42:10.150Z,990.47
2017-06-30T02:42:50.708Z,990.44
2017-06-30T02:43:31.302Z,990.52
2017-06-30T02:44:11.959Z,990.49
2017-06-30T02:44:52.518Z,990.47
2017-06-30T02:45:33.131Z,990.49
2017-06-30T02:46:13.708Z,990.55
2017-06-30T02:46:54.287Z,990.52
2017-06-30T02:47:34.873Z,990.56
2017-06-30T02:48:15.424Z,990.55
2017-06-30T02:48:56.005Z,990.59
2017-06-30T02:49:36.567Z,990.56
2017-06-30T02:50:17.137Z,990.61
2017-06-30T02:50:57.722Z,990.56
2017-06-30T02:51:38.285Z,990.5
2017-06-30T02:52:18.867Z,990.54
2017-06-30T02:52:59.456Z,990.58
2017-06-30T02:53:40.033Z,990.53
2017-06-30T02:54:20.626Z,990.54
2017-06-30T02:55:01.189Z,990.53
2017-06-30T02:55:41.758Z,990.62
2017-06-30T02:56:22.348Z,990.52
2017-06-30T02:57:02.915Z,990.57
2017-06-30T02:57:43.501Z,990.63
2017-06-30T02:58:24.075Z,990.59
2017-06-30T02:59:04.659Z,990.69
2017-06-30T02:59:45.246Z,990.59
2017-06-30T03:00:25.831Z,990.69
2017-06-30T03:01:06.437Z,990.65
2017-06-30T03:01:46.975Z,990.66
2017-06-30T03:02:27.543Z,990.64
2017-06-30T03:03:08.109Z,990.6
2017-06-30T03:03:48.687Z,990.6
2017-06-30T03:04:29.273Z,990.63
2017-06-30T03:05:09.864Z,990.62
2017-06-30T03:05:50.464Z,990.63
2017-06-30T03:06:31.021Z,990.66
2017-06-30T03:07:11.573Z,990.61
2017-06-30T03:07:52.179Z,990.7
2017-06-30T03:08:32.745Z,990.66
2017-06-30T03:09:13.315Z,990.66
2017-06-30T03:09:53.894Z,990.66
2017-06-30T03:10:34.473Z,990.69
2017-06-30T03:11:15.060Z,990.7
2017-06-30T03:11:55.641Z,990.72
2017-06-30T03:12:36.240Z,990.7
2017-06-30T03:13:16.816Z,990.73
2017-06-30T03:13:57.438Z,990.67
2017-06-30T03:14:38.066Z,990.72
2017-06-30T03:15:18.672Z,990.77
2017-06-30T03:15:59.263Z,990.78
2017-06-30T03:16:39.854Z,990.66
2017-06-30T03:17:20.437Z,990.8
2017-06-30T03:18:01.022Z,990.76
2017-06-30T03:18:41.626Z,990.77
2017-06-30T03:19:22.216Z,990.73
2017-06-30T03:20:02.773Z,990.74
2017-06-30T03:20:43.351Z,990.74
2017-06-30T03:21:23.923Z,990.77
2017-06-30T03:22:04.488Z,990.73
2017-06-30T03:22:45.070Z,990.77
2017-06-30T03:23:25.684Z,990.78
2017-06-30T03:24:06.268Z,990.72
2017-06-30T03:24:46.832Z,990.73
2017-06-30T03:25:27.427Z,990.75
2017-06-30T03:26:08.001Z,990.78
2017-06-30T03:26:48.606Z,990.68
2017-06-30T03:27:29.178Z,990.76
2017-06-30T03:28:09.749Z,990.77
2017-06-30T03:28:50.339Z,990.75
2017-06-30T03:29:30.939Z,990.72
2017-06-30T03:30:11.524Z,990.73
2017-06-30T03:30:52.114Z,990.75
2017-06-30T03:31:32.669Z,990.73
2017-06-30T03:32:13.250Z,990.81
2017-06-30T03:32:53.822Z,990.81
2017-06-30T03:33:34.412Z,990.77
2017-06-30T03:34:14.968Z,990.75
2017-06-30T03:34:55.530Z,990.86
2017-06-30T03:35:36.121Z,990.73
2017-06-30T03:36:16.689Z,990.81
2017-06-30T03:36:57.263Z,990.82
2017-06-30T03:37:37.856Z,990.8
2017-06-30T03:38:18.423Z,990.83
2017-06-30T03:38:58.994Z,990.85
2017-06-30T03:39:39.559Z,990.83
2017-06-30T03:40:20.133Z,990.89
2017-06-30T03:41:00.716Z,990.87
2017-06-30T03:41:41.274Z,990.89
2017-06-30T03:42:21.859Z,990.85
2017-06-30T03:43:02.437Z,990.88
2017-06-30T03:43:43.028Z,990.91
2017-06-30T03:44:23.607Z,990.89
2017-06-30T03:45:04.190Z,990.89
2017-06-30T03:45:44.763Z,990.93
2017-06-30T03:46:25.350Z,990.83
2017-06-30T03:47:05.923Z,990.89
2017-06-30T03:47:46.484Z,990.89
2017-06-30T03:48:27.063Z,990.92
2017-06-30T03:49:07.654Z,990.97
2017-06-30T03:49:48.239Z,990.91
2017-06-30T03:50:28.801Z,990.96
2017-06-30T03:51:09.378Z,990.87
2017-06-30T03:51:50.008Z,990.98
2017-06-30T03:52:30.608Z,990.94
2017-06-30T03:53:11.185Z,990.97
2017-06-30T03:53:51.775Z,990.97
2017-06-30T03:54:32.338Z,990.99
2017-06-30T03:55:12.920Z,990.91
2017-06-30T03:55:53.566Z,991.03
2017-06-30T03:56:34.145Z,991.02
2017-06-30T03:57:14.734Z,990.95
2017-06-30T03:57:55.301Z,991.05
2017-06-30T03:58:35.894Z,991.07
2017-06-30T03:59:16.468Z,991.01
2017-06-30T03:59:57.037Z,991.03
2017-06-30T04:00:37.606Z,991.04
2017-06-30T04:01:18.201Z,991.06
2017-06-30T04:01:58.777Z,991.07
2017-06-30T04:02:39.372Z,991.05
2017-06-30T04:03:19.957Z,991.06
2017-06-30T04:04:00.519Z,991.05
2017-06-30T04:04:41.111Z,991.08
2017-06-30T04:05:21.685Z,991.06
2017-06-30T04:06:02.257Z,991.07
2017-06-30T04:06:42.832Z,991.03
2017-06-30T04:07:23.404Z,991.06
2017-06-30T04:08:04.041Z,991.12
2017-06-30T04:08:44.613Z,991.16
2017-06-30T04:09:25.183Z,991.13
2017-06-30T04:10:05.773Z,991.14
2017-06-30T04:10:46.376Z,991.14
2017-06-30T04:11:26.932Z,991.17
2017-06-30T04:12:07.511Z,991.15
2017-06-30T04:12:48.136Z,991.14
2017-06-30T04:13:28.735Z,991.19
2017-06-30T04:14:09.315Z,991.19
2017-06-30T04:14:49.872Z,991.23
2017-06-30T04:15:30.450Z,991.24
2017-06-30T04:16:11.025Z,991.3
2017-06-30T04:16:51.616Z,991.2
2017-06-30T04:17:32.186Z,991.29
2017-06-30T04:18:12.758Z,991.29
2017-06-30T04:18:53.355Z,991.27
2017-06-30T04:19:33.940Z,991.29
2017-06-30T04:20:14.495Z,991.33
2017-06-30T04:20:55.083Z,991.33
2017-06-30T04:21:35.663Z,991.37
2017-06-30T04:22:16.234Z,991.38
2017-06-30T04:22:56.800Z,991.36
2017-06-30T04:23:37.384Z,991.35
2017-06-30T04:24:17.970Z,991.39
2017-06-30T04:24:58.554Z,991.42
2017-06-30T04:25:39.106Z,991.43
2017-06-30T04:26:19.720Z,991.43
2017-06-30T04:27:00.301Z,991.45
2017-06-30T04:27:40.884Z,991.45
2017-06-30T04:28:21.459Z,991.44
2017-06-30T04:29:02.021Z,991.45
2017-06-30T04:29:42.605Z,991.47
2017-06-30T04:30:23.180Z,991.4
2017-06-30T04:31:03.746Z,991.43
2017-06-30T04:31:44.330Z,991.53
2017-06-30T04:32:24.914Z,991.44
2017-06-30T04:33:05.497Z,991.49
2017-06-30T04:33:46.076Z,991.47
2017-06-30T04:34:26.656Z,991.55
2017-06-30T04:35:07.263Z,991.38
2017-06-30T04:35:47.836Z,991.47
2017-06-30T04:36:28.418Z,991.52
2017-06-30T04:37:09.025Z,991.5
2017-06-30T04:37:49.656Z,991.52
2017-06-30T04:38:30.226Z,991.52
2017-06-30T04:39:10.901Z,991.57
2017-06-30T04:39:51.490Z,991.56
2017-06-30T04:40:32.075Z,991.52
2017-06-30T04:41:12.660Z,991.58
2017-06-30T04:41:53.248Z,991.59
2017-06-30T04:42:33.822Z,991.59
2017-06-30T04:43:14.411Z,991.6
2017-06-30T04:43:54.995Z,991.59
2017-06-30T04:44:35.577Z,991.62
2017-06-30T04:45:16.180Z,991.6
2017-06-30T04:45:56.750Z,991.6
2017-06-30T04:46:37.342Z,991.62
2017-06-30T04:47:17.899Z,991.65
2017-06-30T04:47:58.482Z,991.6
2017-06-30T04:48:39.057Z,991.66
2017-06-30T04:49:19.644Z,991.68
2017-06-30T04:50:00.224Z,991.65
2017-06-30T04:50:40.819Z,991.69
2017-06-30T04:51:21.425Z,991.67
2017-06-30T04:52:01.990Z,991.74
2017-06-30T04:52:42.603Z,991.69
2017-06-30T04:53:23.157Z,991.73
2017-06-30T04:54:03.766Z,991.78
2017-06-30T04:54:44.362Z,991.69
2017-06-30T04:55:24.945Z,991.74
2017-06-30T04:56:05.515Z,991.74
2017-06-30T04:56:46.100Z,991.78
2017-06-30T04:57:26.721Z,991.72
2017-06-30T04:58:07.286Z,991.78
2017-06-30T04:58:47.865Z,991.72
2017-06-30T04:59:28.460Z,991.77
2017-06-30T05:00:09.052Z,991.78
2017-06-30T05:00:49.633Z,991.74
2017-06-30T05:01:30.209Z,991.77
2017-06-30T05:02:10.809Z,991.75
2017-06-30T05:02:51.395Z,991.81
2017-06-30T05:03:31.985Z,991.78
2017-06-30T05:04:12.598Z,991.83
2017-06-30T05:04:53.171Z,991.83
2017-06-30T05:05:33.763Z,991.85
2017-06-30T05:06:14.352Z,991.88
2017-06-30T05:06:54.944Z,991.83
2017-06-30T05:07:35.522Z,991.9
2017-06-30T05:08:16.104Z,991.88
2017-06-30T05:08:56.678Z,991.88
2017-06-30T05:09:37.245Z,991.89
2017-06-30T05:10:17.835Z,991.88
2017-06-30T05:10:58.424Z,991.9
2017-06-30T05:11:39.013Z,991.89
2017-06-30T05:12:19.604Z,991.93
2017-06-30T05:13:00.200Z,991.95
2017-06-30T05:13:40.806Z,991.94
2017-06-30T05:14:21.375Z,991.96
2017-06-30T05:15:01.940Z,991.95
2017-06-30T05:15:42.513Z,992
2017-06-30T05:16:23.148Z,991.87
2017-06-30T05:17:03.721Z,991.93
2017-06-30T05:17:44.304Z,991.96
2017-06-30T05:18:24.871Z,991.92
2017-06-30T05:19:05.431Z,991.97
2017-06-30T05:19:46.017Z,991.97
2017-06-30T05:20:26.596Z,991.98
2017-06-30T05:21:07.172Z,992.02
2017-06-30T05:21:47.739Z,991.97
2017-06-30T05:22:28.315Z,992.01
2017-06-30T05:23:08.924Z,991.99
2017-06-30T05:23:49.553Z,992.03
2017-06-30T05:24:30.174Z,991.97
2017-06-30T05:25:10.715Z,992
2017-06-30T05:25:51.311Z,992.05
2017-06-30T05:26:31.911Z,992.03
2017-06-30T05:27:12.466Z,992.04
2017-06-30T05:27:53.061Z,992.11
2017-06-30T05:28:33.651Z,992.08
2017-06-30T05:29:14.258Z,992.11
2017-06-30T05:29:54.827Z,992.08
2017-06-30T05:30:35.429Z,992.07
2017-06-30T05:31:16.015Z,992.12
2017-06-30T05:31:56.579Z,992.13
2017-06-30T05:32:37.159Z,992.15
2017-06-30T05:33:17.735Z,992.19
2017-06-30T05:33:58.302Z,992.19
2017-06-30T05:34:38.920Z,992.17
2017-06-30T05:35:19.494Z,992.2
2017-06-30T05:36:00.083Z,992.22
2017-06-30T05:36:40.692Z,992.25
2017-06-30T05:37:21.283Z,992.28
2017-06-30T05:38:01.896Z,992.26
2017-06-30T05:38:42.474Z,992.26
2017-06-30T05:39:23.041Z,992.13
2017-06-30T05:40:03.640Z,992.25
2017-06-30T05:40:44.212Z,992.29
2017-06-30T05:41:24.809Z,992.25
2017-06-30T05:42:05.426Z,992.3
2017-06-30T05:42:46.015Z,992.27
2017-06-30T05:43:26.603Z,992.33
2017-06-30T05:44:07.187Z,992.26
2017-06-30T05:44:47.785Z,992.28
2017-06-30T05:45:28.336Z,992.31
2017-06-30T05:46:08.912Z,992.32
2017-06-30T05:46:49.480Z,992.39
2017-06-30T05:47:30.065Z,992.39
2017-06-30T05:48:10.620Z,992.38
2017-06-30T05:48:51.180Z,992.29
2017-06-30T05:49:31.789Z,992.39
2017-06-30T05:50:12.400Z,992.38
2017-06-30T05:50:52.963Z,992.37
2017-06-30T05:51:33.557Z,992.36
2017-06-30T05:52:14.139Z,992.49
2017-06-30T05:52:54.753Z,992.43
2017-06-30T05:53:35.730Z,992.4
2017-06-30T05:54:16.200Z,992.49
2017-06-30T05:54:56.783Z,992.5
2017-06-30T05:55:37.385Z,992.51
2017-06-30T05:56:17.977Z,992.47
2017-06-30T05:56:58.527Z,992.56
2017-06-30T05:57:39.096Z,992.52
2017-06-30T05:58:19.685Z,992.54
2017-06-30T05:59:00.266Z,992.54
2017-06-30T05:59:40.890Z,992.56
2017-06-30T06:00:21.469Z,992.56
2017-06-30T06:01:02.053Z,992.56
2017-06-30T06:01:42.634Z,992.62
2017-06-30T06:02:23.228Z,992.62
2017-06-30T06:03:03.854Z,992.55
2017-06-30T06:03:44.421Z,992.63
2017-06-30T06:04:25.001Z,992.61
2017-06-30T06:05:05.570Z,992.58
2017-06-30T06:05:46.133Z,992.59
2017-06-30T06:06:26.826Z,992.65
2017-06-30T06:07:07.405Z,992.68
2017-06-30T06:07:47.998Z,992.66
2017-06-30T06:08:28.610Z,992.7
2017-06-30T06:09:09.197Z,992.67
2017-06-30T06:09:49.801Z,992.69
2017-06-30T06:10:30.415Z,992.68
2017-06-30T06:11:11.017Z,992.75
2017-06-30T06:11:51.617Z,992.8
2017-06-30T06:12:32.219Z,992.82
2017-06-30T06:13:12.822Z,992.83
2017-06-30T06:13:53.411Z,992.78
2017-06-30T06:14:33.983Z,992.83
2017-06-30T06:15:14.759Z,992.89
2017-06-30T06:15:55.324Z,992.84
2017-06-30T06:16:35.983Z,992.8
2017-06-30T06:17:16.747Z,992.88
2017-06-30T06:17:57.381Z,992.96
2017-06-30T06:18:38.116Z,992.97
2017-06-30T06:19:18.782Z,992.95
2017-06-30T06:19:59.398Z,992.94
2017-06-30T06:20:40.090Z,993.01
2017-06-30T06:21:20.662Z,993.04
2017-06-30T06:22:01.231Z,993.01
2017-06-30T06:22:41.855Z,993.07
2017-06-30T06:23:22.442Z,993
2017-06-30T06:24:03.044Z,993.02
2017-06-30T06:24:43.591Z,993.01
2017-06-30T06:25:24.158Z,993.07
2017-06-30T06:26:04.738Z,993.07
2017-06-30T06:26:45.316Z,993.07
2017-06-30T06:27:25.873Z,993.09
2017-06-30T06:28:06.447Z,993.17
2017-06-30T06:28:47.045Z,993.1
2017-06-30T06:29:27.631Z,993.12
2017-06-30T06:30:08.187Z,993.18
2017-06-30T06:30:48.818Z,993.17
2017-06-30T06:31:29.397Z,993.18
2017-06-30T06:32:09.971Z,993.21
2017-06-30T06:32:50.526Z,993.18
2017-06-30T06:33:31.112Z,993.23
2017-06-30T06:34:11.699Z,993.23
2017-06-30T06:34:52.306Z,993.21
2017-06-30T06:35:32.889Z,993.28
2017-06-30T06:36:13.458Z,993.31
2017-06-30T06:36:54.058Z,993.24
2017-06-30T06:37:34.637Z,993.26
2017-06-30T06:38:15.222Z,993.35
2017-06-30T06:38:55.794Z,993.22
2017-06-30T06:39:36.424Z,993.33
2017-06-30T06:40:17.081Z,993.37
2017-06-30T06:40:57.626Z,993.31
2017-06-30T06:41:38.210Z,993.24
2017-06-30T06:42:18.836Z,993.35
2017-06-30T06:42:59.416Z,993.33
2017-06-30T06:43:40.005Z,993.33
2017-06-30T06:44:20.559Z,993.37
2017-06-30T06:45:01.208Z,993.41
2017-06-30T06:45:41.794Z,993.44
2017-06-30T06:46:22.381Z,993.39
2017-06-30T06:47:02.975Z,993.43
2017-06-30T06:47:43.614Z,993.4
2017-06-30T06:48:24.167Z,993.45
2017-06-30T06:49:04.745Z,993.42
2017-06-30T06:49:45.323Z,993.46
2017-06-30T06:50:25.939Z,993.47
2017-06-30T06:51:06.519Z,993.49
2017-06-30T06:51:47.081Z,993.42
2017-06-30T06:52:27.637Z,993.51
2017-06-30T06:53:08.228Z,993.49
2017-06-30T06:53:48.786Z,993.49
2017-06-30T06:54:29.376Z,993.47
2017-06-30T06:55:09.967Z,993.58
2017-06-30T06:55:50.606Z,993.53
2017-06-30T06:56:31.286Z,993.56
2017-06-30T06:57:11.880Z,993.56
2017-06-30T06:57:52.442Z,993.53
2017-06-30T06:58:33.043Z,993.57
2017-06-30T06:59:13.638Z,993.53
2017-06-30T06:59:54.223Z,993.52
2017-06-30T07:00:34.799Z,993.5
2017-06-30T07:01:15.380Z,993.61
2017-06-30T07:01:56.444Z,993.58
2017-06-30T07:02:37.042Z,993.53
2017-06-30T07:03:17.643Z,993.58
2017-06-30T07:03:58.683Z,993.58
2017-06-30T07:04:39.253Z,993.55
2017-06-30T07:05:19.834Z,993.58
2017-06-30T07:06:00.414Z,993.6
2017-06-30T07:06:40.974Z,993.62
2017-06-30T07:07:21.569Z,993.58
2017-06-30T07:08:02.153Z,993.66
2017-06-30T07:08:42.721Z,993.6
2017-06-30T07:09:23.289Z,993.64
2017-06-30T07:10:03.866Z,993.65
2017-06-30T07:10:44.500Z,993.65
2017-06-30T07:11:25.103Z,993.65
2017-06-30T07:12:05.678Z,993.72
2017-06-30T07:12:46.252Z,993.67
2017-06-30T07:13:26.874Z,993.7
2017-06-30T07:14:07.643Z,993.74
2017-06-30T07:14:48.298Z,993.78
2017-06-30T07:15:28.882Z,993.72
2017-06-30T07:16:09.671Z,993.73
2017-06-30T07:16:50.254Z,993.71
2017-06-30T07:17:30.834Z,993.76
2017-06-30T07:18:11.401Z,993.76
2017-06-30T07:18:51.980Z,993.74
2017-06-30T07:19:32.553Z,993.77
2017-06-30T07:20:13.113Z,993.75
2017-06-30T07:20:53.685Z,993.76
2017-06-30T07:21:34.252Z,993.81
2017-06-30T07:22:14.845Z,993.71
2017-06-30T07:22:55.413Z,993.85
2017-06-30T07:23:36.022Z,993.81
2017-06-30T07:24:16.613Z,993.82
2017-06-30T07:24:57.180Z,993.8
2017-06-30T07:25:37.770Z,993.78
2017-06-30T07:26:18.363Z,993.83
2017-06-30T07:26:58.981Z,993.87
2017-06-30T07:27:39.589Z,993.81
2017-06-30T07:28:20.184Z,993.8
2017-06-30T07:29:00.766Z,993.84
2017-06-30T07:29:41.351Z,993.78
2017-06-30T07:30:21.937Z,993.87
2017-06-30T07:31:02.841Z,993.89
2017-06-30T07:31:43.418Z,993.88
2017-06-30T07:32:23.994Z,993.88
2017-06-30T07:33:04.579Z,993.9
2017-06-30T07:33:45.172Z,993.89
2017-06-30T07:34:25.747Z,993.86
2017-06-30T07:35:06.330Z,993.94
2017-06-30T07:35:46.944Z,993.93
2017-06-30T07:36:27.548Z,993.88
2017-06-30T07:37:08.121Z,993.93
2017-06-30T07:37:48.712Z,993.96
2017-06-30T07:38:29.275Z,993.98
2017-06-30T07:39:09.848Z,993.97
2017-06-30T07:39:50.422Z,993.91
2017-06-30T07:40:31.022Z,993.97
2017-06-30T07:41:11.592Z,993.93
2017-06-30T07:41:52.165Z,993.94
2017-06-30T07:42:32.733Z,994.02
2017-06-30T07:43:13.326Z,994.04
2017-06-30T07:43:53.922Z,993.99
2017-06-30T07:44:34.832Z,994
2017-06-30T07:45:15.454Z,994.03
2017-06-30T07:45:56.018Z,994.06
2017-06-30T07:46:36.591Z,994.04
2017-06-30T07:47:17.165Z,994
2017-06-30T07:47:57.748Z,994.03
2017-06-30T07:48:38.320Z,994.05
2017-06-30T07:49:18.910Z,994.02
2017-06-30T07:49:59.492Z,994.04
2017-06-30T07:50:40.065Z,994.05
2017-06-30T07:51:20.628Z,994.03
2017-06-30T07:52:01.204Z,994.02
2017-06-30T07:52:41.784Z,994.06
2017-06-30T07:53:22.425Z,994.1
2017-06-30T07:54:02.968Z,994.07
2017-06-30T07:54:43.535Z,994.04
2017-06-30T07:55:24.113Z,994.1
2017-06-30T07:56:04.716Z,994.03
2017-06-30T07:56:45.323Z,994.05
2017-06-30T07:57:25.879Z,994.06
2017-06-30T07:58:06.443Z,994.09
2017-06-30T07:58:47.021Z,994.06
2017-06-30T07:59:27.598Z,994.02
2017-06-30T08:00:08.174Z,994.11
2017-06-30T08:00:48.868Z,994.08
2017-06-30T08:01:29.456Z,994.07
2017-06-30T08:02:10.036Z,994.13
2017-06-30T08:02:50.600Z,994.11
2017-06-30T08:03:31.181Z,994.12
2017-06-30T08:04:11.755Z,994.07
2017-06-30T08:04:52.342Z,994.13
2017-06-30T08:05:32.915Z,994.12
2017-06-30T08:06:13.473Z,994.12
2017-06-30T08:06:54.058Z,994.12
2017-06-30T08:07:34.645Z,994.06
2017-06-30T08:10:03.052Z,994.07
2017-06-30T08:10:43.643Z,994.11
2017-06-30T08:11:24.210Z,994.15
2017-06-30T08:12:04.773Z,994.11
2017-06-30T08:12:45.354Z,994.11
2017-06-30T08:13:25.956Z,994.16
2017-06-30T08:14:06.509Z,994.16
2017-06-30T08:14:47.071Z,994.12
2017-06-30T08:15:27.676Z,994.14
2017-06-30T08:16:08.261Z,994.18
2017-06-30T08:16:48.834Z,994.1
2017-06-30T08:17:29.382Z,994.18
2017-06-30T08:18:09.955Z,994.17
2017-06-30T08:18:50.550Z,994.13
2017-06-30T08:19:31.161Z,994.18
2017-06-30T08:20:11.770Z,994.13
2017-06-30T08:20:52.333Z,994.19
2017-06-30T08:21:32.922Z,994.15
2017-06-30T08:22:13.529Z,994.15
2017-06-30T08:22:54.099Z,994.13
2017-06-30T08:23:34.681Z,994.08
2017-06-30T08:24:15.242Z,994.14
2017-06-30T08:24:55.827Z,994.11
2017-06-30T08:25:36.416Z,994.23
2017-06-30T08:26:16.986Z,994.13
2017-06-30T08:26:57.576Z,994.16
2017-06-30T08:27:38.159Z,994.21
2017-06-30T08:28:18.727Z,994.12
2017-06-30T08:28:59.321Z,994.2
2017-06-30T08:29:39.915Z,994.19
2017-06-30T08:30:20.501Z,994.15
2017-06-30T08:31:01.072Z,994.19
2017-06-30T08:31:41.679Z,994.22
2017-06-30T08:32:22.290Z,994.18
2017-06-30T08:33:02.935Z,994.14
2017-06-30T08:33:43.533Z,994.23